createdAt,value
2019-05-03T00:01:16.148Z,97090.36
2019-05-03T00:02:37.608Z,97079.91
2019-05-03T00:03:42.522Z,97079.91
2019-05-03T00:04:48.067Z,97089.55
2019-05-03T00:06:08.066Z,97087.86
2019-05-03T00:07:11.913Z,97086.41
2019-05-03T00:08:15.571Z,97086.41
2019-05-03T00:09:19.992Z,97082.21
2019-05-03T00:10:23.948Z,97079.88
2019-05-03T00:11:27.576Z,97084.46
2019-05-03T00:12:32.758Z,97084.91
2019-05-03T00:13:36.533Z,97084.91
2019-05-03T00:14:41.808Z,97090.91
2019-05-03T00:15:47.071Z,97096.61
2019-05-03T00:16:52.225Z,97087.33
2019-05-03T00:17:55.990Z,97093.37
2019-05-03T00:19:01.558Z,97090.48
2019-05-03T00:20:06.742Z,97090.48
2019-05-03T00:21:11.670Z,97094.16
2019-05-03T00:22:15.574Z,97096.28
2019-05-03T00:23:19.206Z,97097.95
2019-05-03T00:24:22.877Z,97096.72
2019-05-03T00:25:26.526Z,97090.89
2019-05-03T00:26:31.843Z,97092.91
2019-05-03T00:27:35.573Z,97094.25
2019-05-03T00:28:39.216Z,97093.78
2019-05-03T00:29:42.882Z,97083.13
2019-05-03T00:30:46.528Z,97096.02
2019-05-03T00:31:51.651Z,97096.02
2019-05-03T00:32:55.752Z,97096.58
2019-05-03T00:34:02.259Z,97099.94
2019-05-03T00:35:12.073Z,97095.35
2019-05-03T00:36:23.572Z,97095.35
2019-05-03T00:37:28.849Z,97099.70
2019-05-03T00:38:32.613Z,97092.64
2019-05-03T00:39:38.326Z,97101.95
2019-05-03T00:40:41.982Z,97098.23
2019-05-03T00:41:45.621Z,97098.23
2019-05-03T00:42:49.264Z,97100.92
2019-05-03T00:43:52.983Z,97100.92
2019-05-03T00:44:56.683Z,97089.52
2019-05-03T00:46:02.013Z,97089.52
2019-05-03T00:47:05.768Z,97090.89
2019-05-03T00:48:09.411Z,97084.94
2019-05-03T00:49:13.432Z,97097.34
2019-05-03T00:50:17.094Z,97097.34
2019-05-03T00:51:22.550Z,97095.49
2019-05-03T00:52:26.150Z,97107.48
2019-05-03T00:53:31.608Z,97107.48
2019-05-03T00:54:35.144Z,97113.73
2019-05-03T00:55:38.790Z,97113.73
2019-05-03T00:56:44.426Z,97110.25
2019-05-03T00:57:47.823Z,97112.11
2019-05-03T00:58:53.200Z,97111.28
2019-05-03T00:59:57.008Z,97110.41
2019-05-03T01:01:02.589Z,97101.77
2019-05-03T01:02:06.157Z,97105.91
2019-05-03T01:03:09.805Z,97109.34
2019-05-03T01:04:13.441Z,97109.34
2019-05-03T01:05:19.134Z,97109.33
2019-05-03T01:06:22.778Z,97109.33
2019-05-03T01:07:26.436Z,97105.94
2019-05-03T01:08:30.088Z,97116.09
2019-05-03T01:09:33.896Z,97110.60
2019-05-03T01:10:37.546Z,97110.60
2019-05-03T01:11:41.821Z,97109.50
2019-05-03T01:12:45.551Z,97114.32
2019-05-03T01:13:49.186Z,97116.38
2019-05-03T01:14:54.124Z,97116.38
2019-05-03T01:15:59.344Z,97120.77
2019-05-03T01:17:02.976Z,97120.77
2019-05-03T01:18:08.328Z,97110.66
2019-05-03T01:19:12.119Z,97119.86
2019-05-03T01:20:15.871Z,97118.52
2019-05-03T01:21:19.556Z,97118.52
2019-05-03T01:22:23.214Z,97116.62
2019-05-03T01:23:26.871Z,97116.73
2019-05-03T01:24:32.307Z,97113.00
2019-05-03T01:25:36.073Z,97118.22
2019-05-03T01:26:41.942Z,97118.22
2019-05-03T01:27:45.502Z,97115.42
2019-05-03T01:28:49.199Z,97115.42
2019-05-03T01:29:52.827Z,97120.48
2019-05-03T01:30:58.934Z,97124.67
2019-05-03T01:32:02.566Z,97123.27
2019-05-03T01:33:06.195Z,97119.66
2019-05-03T01:34:09.916Z,97126.92
2019-05-03T01:35:13.538Z,97126.89
2019-05-03T01:36:17.607Z,97126.89
2019-05-03T01:37:22.683Z,97129.88
2019-05-03T01:38:26.449Z,97129.88
2019-05-03T01:39:31.660Z,97133.12
2019-05-03T01:40:35.441Z,97131.06
2019-05-03T01:41:39.092Z,97132.95
2019-05-03T01:42:42.748Z,97136.64
2019-05-03T01:43:46.372Z,97131.08
2019-05-03T01:44:52.078Z,97131.91
2019-05-03T01:45:55.482Z,97130.90
2019-05-03T01:47:02.295Z,97133.18
2019-05-03T01:48:07.673Z,97131.91
2019-05-03T01:49:12.921Z,97137.56
2019-05-03T01:50:33.166Z,97139.89
2019-05-03T01:51:47.515Z,97136.17
2019-05-03T01:52:52.800Z,97140.73
2019-05-03T01:53:56.534Z,97143.56
2019-05-03T01:55:00.246Z,97141.77
2019-05-03T01:56:03.917Z,97139.00
2019-05-03T01:57:07.980Z,97147.05
2019-05-03T01:58:12.490Z,97150.36
2019-05-03T01:59:16.251Z,97149.89
2019-05-03T02:00:24.756Z,97147.66
2019-05-03T02:01:46.244Z,97146.21
2019-05-03T02:02:52.499Z,97143.78
2019-05-03T02:03:57.863Z,97143.95
2019-05-03T02:05:15.961Z,97145.53
2019-05-03T02:06:19.649Z,97143.65
2019-05-03T02:07:23.266Z,97141.83
2019-05-03T02:08:26.914Z,97140.48
2019-05-03T02:09:32.235Z,97141.16
2019-05-03T02:10:36.067Z,97142.06
2019-05-03T02:11:39.690Z,97135.93
2019-05-03T02:12:43.350Z,97138.58
2019-05-03T02:13:47.006Z,97141.46
2019-05-03T02:14:51.653Z,97141.00
2019-05-03T02:15:55.450Z,97145.58
2019-05-03T02:16:59.252Z,97137.95
2019-05-03T02:18:02.944Z,97140.13
2019-05-03T02:19:06.890Z,97139.00
2019-05-03T02:20:12.441Z,97137.86
2019-05-03T02:21:16.070Z,97143.20
2019-05-03T02:22:19.698Z,97132.12
2019-05-03T02:23:23.356Z,97137.92
2019-05-03T02:24:27.428Z,97144.69
2019-05-03T02:25:32.365Z,97140.74
2019-05-03T02:26:36.539Z,97144.99
2019-05-03T02:27:42.038Z,97146.56
2019-05-03T02:28:45.596Z,97143.84
2019-05-03T02:29:49.523Z,97142.30
2019-05-03T02:30:53.603Z,97141.95
2019-05-03T02:31:57.305Z,97131.38
2019-05-03T02:33:04.048Z,97146.34
2019-05-03T02:34:06.713Z,97146.10
2019-05-03T02:35:10.404Z,97157.17
2019-05-03T02:36:14.343Z,97152.23
2019-05-03T02:37:18.022Z,97150.08
2019-05-03T02:38:23.573Z,97153.59
2019-05-03T02:39:27.277Z,97153.45
2019-05-03T02:40:33.585Z,97162.36
2019-05-03T02:41:36.609Z,97160.95
2019-05-03T02:42:40.608Z,97164.91
2019-05-03T02:43:45.898Z,97168.21
2019-05-03T02:44:49.563Z,97171.02
2019-05-03T02:46:16.461Z,97169.90
2019-05-03T02:47:20.649Z,97172.11
2019-05-03T02:48:36.423Z,97170.55
2019-05-03T02:49:45.554Z,97163.18
2019-05-03T02:50:49.445Z,97165.60
2019-05-03T02:51:55.238Z,97171.06
2019-05-03T02:52:58.458Z,97168.64
2019-05-03T02:54:02.108Z,97164.14
2019-05-03T02:55:08.317Z,97170.38
2019-05-03T02:56:21.029Z,97167.50
2019-05-03T02:57:17.407Z,97165.19
2019-05-03T02:58:21.136Z,97167.42
2019-05-03T02:59:26.453Z,97166.88
2019-05-03T03:01:01.468Z,97167.61
2019-05-03T03:02:06.389Z,97168.83
2019-05-03T03:03:10.988Z,97162.57
2019-05-03T03:04:15.801Z,97166.37
2019-05-03T03:05:20.158Z,97166.37
2019-05-03T03:06:26.821Z,97171.95
2019-05-03T03:07:31.825Z,97168.32
2019-05-03T03:08:37.081Z,97172.49
2019-05-03T03:09:41.827Z,97178.91
2019-05-03T03:10:46.066Z,97177.11
2019-05-03T03:11:51.115Z,97178.12
2019-05-03T03:12:58.014Z,97184.80
2019-05-03T03:14:05.838Z,97177.04
2019-05-03T03:15:09.715Z,97179.95
2019-05-03T03:16:15.210Z,97175.45
2019-05-03T03:17:20.954Z,97179.08
2019-05-03T03:18:25.524Z,97183.59
2019-05-03T03:19:30.635Z,97178.38
2019-05-03T03:20:37.277Z,97177.83
2019-05-03T03:21:46.604Z,97177.83
2019-05-03T03:22:55.414Z,97179.51
2019-05-03T03:24:16.600Z,97181.76
2019-05-03T03:25:25.761Z,97182.88
2019-05-03T03:26:37.651Z,97181.76
2019-05-03T03:27:38.594Z,97189.59
2019-05-03T03:28:46.259Z,97188.92
2019-05-03T03:29:55.163Z,97190.02
2019-05-03T03:31:27.837Z,97187.22
2019-05-03T03:32:32.219Z,97186.97
2019-05-03T03:33:40.272Z,97186.92
2019-05-03T03:34:55.433Z,97182.71
2019-05-03T03:36:01.060Z,97190.34
2019-05-03T03:37:06.416Z,97192.06
2019-05-03T03:38:07.176Z,97189.52
2019-05-03T03:39:10.865Z,97188.43
2019-05-03T03:40:16.200Z,97190.06
2019-05-03T03:41:21.051Z,97188.30
2019-05-03T03:42:25.203Z,97191.89
2019-05-03T03:43:30.964Z,97195.47
2019-05-03T03:44:36.445Z,97194.09
2019-05-03T03:45:41.180Z,97193.80
2019-05-03T03:46:46.211Z,97188.37
2019-05-03T03:47:55.809Z,97195.35
2019-05-03T03:48:58.630Z,97197.38
2019-05-03T03:50:05.903Z,97197.70
2019-05-03T03:51:12.157Z,97203.05
2019-05-03T03:52:17.264Z,97204.94
2019-05-03T03:53:23.066Z,97203.23
2019-05-03T03:54:28.120Z,97202.52
2019-05-03T03:55:35.424Z,97206.81
2019-05-03T03:56:54.508Z,97204.23
2019-05-03T03:57:46.817Z,97206.52
2019-05-03T03:58:52.100Z,97205.67
2019-05-03T03:59:56.481Z,97209.83
2019-05-03T04:01:00.246Z,97212.45
2019-05-03T04:02:05.957Z,97211.59
2019-05-03T04:03:10.299Z,97218.22
2019-05-03T04:04:16.017Z,97215.48
2019-05-03T04:05:19.957Z,97215.86
2019-05-03T04:06:26.833Z,97215.78
2019-05-03T04:07:31.491Z,97223.32
2019-05-03T04:08:36.422Z,97215.86
2019-05-03T04:09:40.556Z,97221.67
2019-05-03T04:10:46.373Z,97223.24
2019-05-03T04:11:49.965Z,97224.89
2019-05-03T04:12:55.974Z,97230.27
2019-05-03T04:13:59.027Z,97226.02
2019-05-03T04:15:17.021Z,97233.05
2019-05-03T04:16:22.513Z,97227.58
2019-05-03T04:17:45.668Z,97229.70
2019-05-03T04:18:55.124Z,97229.13
2019-05-03T04:19:59.773Z,97228.81
2019-05-03T04:21:05.496Z,97231.25
2019-05-03T04:22:08.873Z,97225.33
2019-05-03T04:23:16.015Z,97226.41
2019-05-03T04:24:18.086Z,97226.95
2019-05-03T04:25:22.330Z,97227.03
2019-05-03T04:26:29.788Z,97233.20
2019-05-03T04:27:31.912Z,97225.70
2019-05-03T04:28:36.277Z,97232.91
2019-05-03T04:29:40.091Z,97229.80
2019-05-03T04:30:45.996Z,97233.67
2019-05-03T04:31:49.307Z,97238.18
2019-05-03T04:32:56.187Z,97234.05
2019-05-03T04:33:58.308Z,97236.05
2019-05-03T04:35:02.000Z,97235.75
2019-05-03T04:36:05.967Z,97236.89
2019-05-03T04:37:12.390Z,97234.16
2019-05-03T04:38:17.866Z,97235.50
2019-05-03T04:39:21.623Z,97237.33
2019-05-03T04:40:26.134Z,97234.66
2019-05-03T04:41:30.131Z,97233.75
2019-05-03T04:42:35.705Z,97228.34
2019-05-03T04:43:39.210Z,97226.78
2019-05-03T04:44:45.375Z,97230.67
2019-05-03T04:45:51.254Z,97229.67
2019-05-03T04:46:58.274Z,97236.25
2019-05-03T04:48:05.730Z,97229.20
2019-05-03T04:49:08.233Z,97233.14
2019-05-03T04:50:11.973Z,97237.64
2019-05-03T04:51:16.635Z,97236.65
2019-05-03T04:52:20.477Z,97235.14
2019-05-03T04:53:26.011Z,97231.68
2019-05-03T04:54:31.050Z,97238.19
2019-05-03T04:55:36.395Z,97239.14
2019-05-03T04:56:40.283Z,97238.42
2019-05-03T04:57:46.766Z,97236.34
2019-05-03T04:58:49.596Z,97234.30
2019-05-03T04:59:55.852Z,97239.81
2019-05-03T05:00:59.160Z,97239.47
2019-05-03T05:02:02.843Z,97239.00
2019-05-03T05:03:06.519Z,97246.31
2019-05-03T05:04:10.192Z,97239.46
2019-05-03T05:05:15.367Z,97243.30
2019-05-03T05:06:19.222Z,97236.92
2019-05-03T05:07:25.732Z,97240.22
2019-05-03T05:08:28.366Z,97233.80
2019-05-03T05:09:31.992Z,97232.55
2019-05-03T05:10:36.393Z,97232.73
2019-05-03T05:11:40.264Z,97233.28
2019-05-03T05:12:45.710Z,97238.78
2019-05-03T05:13:49.327Z,97237.04
2019-05-03T05:14:52.980Z,97239.85
2019-05-03T05:15:56.613Z,97237.18
2019-05-03T05:17:00.705Z,97241.52
2019-05-03T05:18:08.916Z,97238.82
2019-05-03T05:19:15.180Z,97241.20
2019-05-03T05:20:20.675Z,97241.33
2019-05-03T05:21:25.953Z,97243.59
2019-05-03T05:22:34.955Z,97240.54
2019-05-03T05:23:40.381Z,97241.84
2019-05-03T05:24:44.986Z,97237.61
2019-05-03T05:25:54.991Z,97244.00
2019-05-03T05:27:17.018Z,97233.80
2019-05-03T05:28:22.322Z,97240.09
2019-05-03T05:29:36.596Z,97240.00
2019-05-03T05:30:40.316Z,97238.61
2019-05-03T05:31:44.653Z,97240.34
2019-05-03T05:32:48.393Z,97239.28
2019-05-03T05:33:52.051Z,97244.41
2019-05-03T05:34:56.137Z,97247.66
2019-05-03T05:35:59.877Z,97245.03
2019-05-03T05:37:05.289Z,97247.16
2019-05-03T05:38:09.119Z,97244.56
2019-05-03T05:39:15.244Z,97235.70
2019-05-03T05:40:22.099Z,97232.97
2019-05-03T05:41:25.745Z,97237.83
2019-05-03T05:42:29.380Z,97239.86
2019-05-03T05:43:33.325Z,97234.07
2019-05-03T05:44:37.003Z,97231.27
2019-05-03T05:45:41.105Z,97232.16
2019-05-03T05:47:04.593Z,97232.58
2019-05-03T05:48:09.788Z,97231.70
2019-05-03T05:49:15.091Z,97231.70
2019-05-03T05:50:25.361Z,97223.98
2019-05-03T05:51:29.250Z,97235.16
2019-05-03T05:52:34.609Z,97233.98
2019-05-03T05:53:38.321Z,97237.45
2019-05-03T05:54:45.486Z,97231.79
2019-05-03T05:56:06.566Z,97239.81
2019-05-03T05:57:30.080Z,97236.50
2019-05-03T05:58:41.393Z,97235.89
2019-05-03T05:59:46.703Z,97237.08
2019-05-03T06:01:08.353Z,97228.65
2019-05-03T06:02:12.057Z,97233.69
2019-05-03T06:03:15.770Z,97227.41
2019-05-03T06:04:19.424Z,97238.09
2019-05-03T06:05:25.151Z,97230.94
2019-05-03T06:06:34.837Z,97232.31
2019-05-03T06:07:40.247Z,97226.42
2019-05-03T06:08:51.752Z,97228.52
2019-05-03T06:10:14.678Z,97231.72
2019-05-03T06:11:31.355Z,97229.66
2019-05-03T06:12:42.398Z,97225.65
2019-05-03T06:13:48.092Z,97225.22
2019-05-03T06:14:54.451Z,97224.20
2019-05-03T06:16:15.480Z,97221.61
2019-05-03T06:17:20.950Z,97224.36
2019-05-03T06:18:29.184Z,97218.84
2019-05-03T06:19:34.658Z,97221.33
2019-05-03T06:20:42.715Z,97220.50
2019-05-03T06:21:54.871Z,97220.50
2019-05-03T06:23:05.873Z,97216.27
2019-05-03T06:24:11.193Z,97216.27
2019-05-03T06:25:26.561Z,97213.11
2019-05-03T06:26:41.277Z,97216.52
2019-05-03T06:27:45.007Z,97218.23
2019-05-03T06:28:48.655Z,97218.36
2019-05-03T06:29:55.636Z,97218.33
2019-05-03T06:31:14.857Z,97218.57
2019-05-03T06:32:29.484Z,97218.57
2019-05-03T06:33:34.746Z,97206.87
2019-05-03T06:34:38.510Z,97206.87
2019-05-03T06:35:42.250Z,97210.09
2019-05-03T06:36:47.922Z,97212.14
2019-05-03T06:37:54.546Z,97205.66
2019-05-03T06:38:58.601Z,97205.66
2019-05-03T06:40:05.808Z,97202.61
2019-05-03T06:41:07.656Z,97199.13
2019-05-03T06:42:16.046Z,97193.06
2019-05-03T06:43:16.826Z,97189.53
2019-05-03T06:44:24.839Z,97186.03
2019-05-03T06:45:26.357Z,97193.96
2019-05-03T06:46:46.700Z,97186.63
2019-05-03T06:47:50.463Z,97189.95
2019-05-03T06:48:54.363Z,97187.46
2019-05-03T06:49:58.373Z,97193.33
2019-05-03T06:51:08.822Z,97193.28
2019-05-03T06:52:07.462Z,97188.95
2019-05-03T06:53:12.973Z,97191.83
2019-05-03T06:54:20.766Z,97190.19
2019-05-03T06:55:22.036Z,97186.72
2019-05-03T06:56:29.072Z,97183.64
2019-05-03T06:57:31.148Z,97186.28
2019-05-03T06:58:36.428Z,97185.32
2019-05-03T06:59:41.997Z,97182.19
2019-05-03T07:01:04.668Z,97186.59
2019-05-03T07:02:28.542Z,97183.45
2019-05-03T07:03:45.844Z,97182.88
2019-05-03T07:04:56.953Z,97180.02
2019-05-03T07:06:18.722Z,97181.59
2019-05-03T07:07:28.064Z,97181.84
2019-05-03T07:08:47.266Z,97178.01
2019-05-03T07:10:07.715Z,97173.82
2019-05-03T07:11:11.390Z,97169.09
2019-05-03T07:12:15.017Z,97167.15
2019-05-03T07:13:18.763Z,97170.48
2019-05-03T07:14:24.570Z,97167.34
2019-05-03T07:15:28.028Z,97164.42
2019-05-03T07:16:31.788Z,97166.31
2019-05-03T07:17:35.468Z,97160.32
2019-05-03T07:18:39.101Z,97161.33
2019-05-03T07:19:42.747Z,97158.03
2019-05-03T07:20:56.490Z,97163.45
2019-05-03T07:21:59.796Z,97155.10
2019-05-03T07:23:04.363Z,97150.17
2019-05-03T07:24:08.192Z,97150.31
2019-05-03T07:25:11.956Z,97149.50
2019-05-03T07:26:15.910Z,97147.58
2019-05-03T07:27:19.553Z,97146.09
2019-05-03T07:28:24.823Z,97137.41
2019-05-03T07:29:28.707Z,97139.98
2019-05-03T07:30:35.108Z,97139.01
2019-05-03T07:31:37.829Z,97136.45
2019-05-03T07:32:44.848Z,97137.45
2019-05-03T07:33:48.649Z,97136.88
2019-05-03T07:34:52.287Z,97128.44
2019-05-03T07:35:56.085Z,97132.36
2019-05-03T07:36:59.782Z,97136.02
2019-05-03T07:38:05.350Z,97130.73
2019-05-03T07:39:09.175Z,97131.03
2019-05-03T07:40:14.820Z,97132.59
2019-05-03T07:41:18.764Z,97124.48
2019-05-03T07:42:22.415Z,97119.98
2019-05-03T07:43:26.077Z,97123.48
2019-05-03T07:44:29.710Z,97122.75
2019-05-03T07:45:35.390Z,97127.73
2019-05-03T07:46:38.859Z,97128.05
2019-05-03T07:47:42.551Z,97125.35
2019-05-03T07:48:46.243Z,97124.98
2019-05-03T07:49:49.896Z,97130.63
2019-05-03T07:50:54.671Z,97123.62
2019-05-03T07:51:58.482Z,97117.59
2019-05-03T07:53:02.246Z,97118.80
2019-05-03T07:54:06.344Z,97118.98
2019-05-03T07:55:09.978Z,97118.02
2019-05-03T07:56:15.451Z,97120.53
2019-05-03T07:57:25.515Z,97120.34
2019-05-03T07:58:30.580Z,97111.32
2019-05-03T07:59:35.575Z,97118.09
2019-05-03T08:00:39.421Z,97116.55
2019-05-03T08:01:45.614Z,97120.64
2019-05-03T08:02:49.467Z,97113.36
2019-05-03T08:03:55.051Z,97113.08
2019-05-03T08:04:58.537Z,97108.73
2019-05-03T08:06:04.980Z,97110.63
2019-05-03T08:07:19.960Z,97110.48
2019-05-03T08:08:15.117Z,97113.58
2019-05-03T08:09:18.917Z,97107.17
2019-05-03T08:10:22.622Z,97107.25
2019-05-03T08:11:26.325Z,97100.94
2019-05-03T08:12:31.273Z,97102.77
2019-05-03T08:13:35.559Z,97092.26
2019-05-03T08:14:39.450Z,97099.51
2019-05-03T08:15:45.086Z,97090.66
2019-05-03T08:16:48.537Z,97095.83
2019-05-03T08:17:52.108Z,97088.17
2019-05-03T08:18:56.059Z,97090.59
2019-05-03T08:19:59.865Z,97092.20
2019-05-03T08:21:05.608Z,97088.44
2019-05-03T08:22:11.140Z,97088.41
2019-05-03T08:23:26.325Z,97086.40
2019-05-03T08:24:22.477Z,97080.22
2019-05-03T08:25:26.447Z,97078.64
2019-05-03T08:26:30.099Z,97080.08
2019-05-03T08:27:35.418Z,97075.89
2019-05-03T08:28:40.716Z,97072.67
2019-05-03T08:29:45.398Z,97074.81
2019-05-03T08:31:08.872Z,97072.39
2019-05-03T08:32:19.937Z,97069.05
2019-05-03T08:33:35.418Z,97076.72
2019-05-03T08:34:46.150Z,97071.21
2019-05-03T08:35:51.162Z,97074.04
2019-05-03T08:36:59.139Z,97068.66
2019-05-03T08:38:04.955Z,97064.11
2019-05-03T08:39:09.925Z,97064.11
2019-05-03T08:40:15.579Z,97056.88
2019-05-03T08:41:20.995Z,97058.08
2019-05-03T08:42:25.630Z,97053.27
2019-05-03T08:43:29.258Z,97053.45
2019-05-03T08:44:35.190Z,97057.89
2019-05-03T08:45:38.266Z,97051.78
2019-05-03T08:46:42.134Z,97048.91
2019-05-03T08:47:45.768Z,97044.89
2019-05-03T08:48:49.757Z,97043.51
2019-05-03T08:49:55.466Z,97035.58
2019-05-03T08:50:58.756Z,97034.80
2019-05-03T08:52:02.545Z,97039.53
2019-05-03T08:53:07.364Z,97037.53
2019-05-03T08:54:11.071Z,97032.67
2019-05-03T08:55:15.877Z,97027.77
2019-05-03T08:56:19.773Z,97032.07
2019-05-03T08:57:25.414Z,97026.94
2019-05-03T08:58:28.997Z,97033.77
2019-05-03T08:59:32.959Z,97028.82
2019-05-03T09:00:38.779Z,97020.14
2019-05-03T09:01:42.530Z,97022.31
2019-05-03T09:02:46.333Z,97020.44
2019-05-03T09:03:49.919Z,97010.72
2019-05-03T09:04:54.650Z,97011.68
2019-05-03T09:05:58.755Z,97012.48
2019-05-03T09:07:05.312Z,97009.81
2019-05-03T09:08:09.150Z,97010.97
2019-05-03T09:09:25.444Z,97010.03
2019-05-03T09:10:35.561Z,97009.95
2019-05-03T09:11:39.323Z,97011.11
2019-05-03T09:12:56.283Z,97007.93
2019-05-03T09:14:05.507Z,97007.02
2019-05-03T09:15:09.349Z,97005.66
2019-05-03T09:16:14.730Z,96996.73
2019-05-03T09:17:18.366Z,96998.64
2019-05-03T09:18:22.110Z,96992.17
2019-05-03T09:19:25.963Z,96994.12
2019-05-03T09:20:32.263Z,96993.36
2019-05-03T09:21:34.960Z,96991.26
2019-05-03T09:22:38.680Z,96993.09
2019-05-03T09:23:42.328Z,96985.81
2019-05-03T09:24:46.085Z,96986.83
2019-05-03T09:25:49.720Z,96982.52
2019-05-03T09:26:55.407Z,96983.27
2019-05-03T09:27:59.094Z,96980.77
2019-05-03T09:29:05.557Z,96984.02
2019-05-03T09:30:09.679Z,96990.00
2019-05-03T09:31:15.720Z,96993.34
2019-05-03T09:32:19.914Z,96989.02
2019-05-03T09:33:24.870Z,96982.47
2019-05-03T09:34:28.840Z,96985.13
2019-05-03T09:35:33.782Z,96981.70
2019-05-03T09:36:38.080Z,96982.97
2019-05-03T09:37:41.709Z,96980.03
2019-05-03T09:38:45.909Z,96978.32
2019-05-03T09:39:49.679Z,96978.78
2019-05-03T09:40:54.590Z,96979.88
2019-05-03T09:41:58.854Z,96972.66
2019-05-03T09:43:04.343Z,96976.15
2019-05-03T09:44:07.893Z,96970.95
2019-05-03T09:45:12.021Z,96977.81
2019-05-03T09:46:16.136Z,96974.34
2019-05-03T09:47:19.853Z,96964.18
2019-05-03T09:48:25.451Z,96963.64
2019-05-03T09:49:29.081Z,96966.73
2019-05-03T09:50:32.734Z,96959.83
2019-05-03T09:51:36.431Z,96957.55
2019-05-03T09:52:40.059Z,96952.75
2019-05-03T09:53:45.337Z,96947.80
2019-05-03T09:54:50.676Z,96948.91
2019-05-03T09:55:55.511Z,96945.23
2019-05-03T09:57:00.021Z,96941.72
2019-05-03T09:58:05.497Z,96941.28
2019-05-03T09:59:09.314Z,96941.27
2019-05-03T10:00:16.107Z,96943.26
2019-05-03T10:01:19.322Z,96937.11
2019-05-03T10:02:24.759Z,96932.93
2019-05-03T10:03:31.139Z,96930.67
2019-05-03T10:04:36.597Z,96931.30
2019-05-03T10:05:40.119Z,96926.78
2019-05-03T10:06:45.197Z,96932.48
2019-05-03T10:07:49.106Z,96930.05
2019-05-03T10:08:52.818Z,96927.27
2019-05-03T10:09:56.825Z,96926.92
2019-05-03T10:11:15.133Z,96924.31
2019-05-03T10:12:19.809Z,96924.30
2019-05-03T10:13:27.112Z,96920.97
2019-05-03T10:14:30.127Z,96919.30
2019-05-03T10:15:38.095Z,96921.41
2019-05-03T10:16:44.852Z,96919.87
2019-05-03T10:17:50.254Z,96917.61
2019-05-03T10:18:55.280Z,96916.07
2019-05-03T10:19:59.041Z,96911.37
2019-05-03T10:21:05.134Z,96917.39
2019-05-03T10:22:08.181Z,96916.78
2019-05-03T10:23:16.217Z,96912.66
2019-05-03T10:24:19.895Z,96921.14
2019-05-03T10:25:24.828Z,96911.77
2019-05-03T10:26:28.632Z,96909.75
2019-05-03T10:27:43.123Z,96902.34
2019-05-03T10:28:46.818Z,96902.36
2019-05-03T10:29:50.480Z,96900.77
2019-05-03T10:30:54.732Z,96896.64
2019-05-03T10:32:09.598Z,96898.06
2019-05-03T10:33:15.614Z,96893.90
2019-05-03T10:34:19.346Z,96888.67
2019-05-03T10:35:24.583Z,96892.52
2019-05-03T10:36:28.453Z,96892.05
2019-05-03T10:37:32.941Z,96890.98
2019-05-03T10:38:37.233Z,96887.75
2019-05-03T10:39:41.062Z,96882.92
2019-05-03T10:40:45.347Z,96882.08
2019-05-03T10:41:49.122Z,96880.30
2019-05-03T10:42:52.756Z,96874.70
2019-05-03T10:43:56.430Z,96871.74
2019-05-03T10:45:00.138Z,96868.66
2019-05-03T10:46:05.121Z,96868.81
2019-05-03T10:47:08.933Z,96855.23
2019-05-03T10:48:12.665Z,96857.66
2019-05-03T10:49:16.447Z,96857.11
2019-05-03T10:50:20.966Z,96858.89
2019-05-03T10:51:26.297Z,96859.20
2019-05-03T10:52:31.621Z,96848.88
2019-05-03T10:53:36.899Z,96857.14
2019-05-03T10:54:40.646Z,96855.83
2019-05-03T10:55:45.906Z,96857.16
2019-05-03T10:56:51.243Z,96857.84
2019-05-03T10:58:05.649Z,96854.70
2019-05-03T10:59:11.153Z,96847.11
2019-05-03T11:00:41.716Z,96847.73
2019-05-03T11:01:40.280Z,96845.84
2019-05-03T11:02:48.535Z,96841.94
2019-05-03T11:03:52.168Z,96847.25
2019-05-03T11:04:55.966Z,96847.56
2019-05-03T11:05:59.667Z,96841.93
2019-05-03T11:07:05.310Z,96840.09
2019-05-03T11:08:08.893Z,96841.31
2019-05-03T11:09:15.171Z,96843.22
2019-05-03T11:10:19.303Z,96840.19
2019-05-03T11:11:22.951Z,96839.53
2019-05-03T11:12:27.219Z,96838.98
2019-05-03T11:13:30.929Z,96842.24
2019-05-03T11:14:35.144Z,96832.65
2019-05-03T11:15:38.887Z,96828.84
2019-05-03T11:16:42.518Z,96829.77
2019-05-03T11:17:46.172Z,96829.10
2019-05-03T11:18:49.876Z,96832.43
2019-05-03T11:19:54.727Z,96832.45
2019-05-03T11:20:58.343Z,96831.61
2019-05-03T11:22:02.021Z,96825.95
2019-05-03T11:23:07.765Z,96825.19
2019-05-03T11:24:11.428Z,96825.07
2019-05-03T11:25:15.150Z,96822.19
2019-05-03T11:26:19.312Z,96822.82
2019-05-03T11:27:24.880Z,96825.41
2019-05-03T11:28:28.582Z,96827.38
2019-05-03T11:29:32.420Z,96817.02
2019-05-03T11:30:36.070Z,96817.51
2019-05-03T11:31:57.995Z,96816.56
2019-05-03T11:33:05.922Z,96812.05
2019-05-03T11:34:11.564Z,96812.30
2019-05-03T11:35:31.875Z,96814.89
2019-05-03T11:36:54.808Z,96813.10
2019-05-03T11:38:02.656Z,96805.33
2019-05-03T11:39:08.089Z,96805.95
2019-05-03T11:40:12.193Z,96808.30
2019-05-03T11:41:28.832Z,96798.95
2019-05-03T11:42:21.410Z,96805.71
2019-05-03T11:43:25.035Z,96800.23
2019-05-03T11:44:40.772Z,96804.00
2019-05-03T11:45:44.950Z,96799.53
2019-05-03T11:46:48.747Z,96796.10
2019-05-03T11:47:52.393Z,96794.52
2019-05-03T11:48:56.054Z,96796.09
2019-05-03T11:49:59.854Z,96797.70
2019-05-03T11:51:03.479Z,96793.35
2019-05-03T11:52:07.758Z,96790.92
2019-05-03T11:53:11.390Z,96791.17
2019-05-03T11:54:16.551Z,96786.52
2019-05-03T11:55:20.406Z,96791.92
2019-05-03T11:56:24.968Z,96788.05
2019-05-03T11:57:28.847Z,96789.95
2019-05-03T11:58:34.255Z,96785.69
2019-05-03T11:59:38.006Z,96788.38
2019-05-03T12:00:41.735Z,96790.64
2019-05-03T12:01:51.677Z,96793.06
2019-05-03T12:02:56.971Z,96790.95
2019-05-03T12:04:00.669Z,96792.17
2019-05-03T12:05:15.661Z,96788.55
2019-05-03T12:06:19.351Z,96794.17
2019-05-03T12:07:38.891Z,96789.41
2019-05-03T12:08:37.761Z,96786.70
2019-05-03T12:09:41.403Z,96778.22
2019-05-03T12:10:55.227Z,96786.04
2019-05-03T12:11:55.495Z,96787.39
2019-05-03T12:13:05.060Z,96774.28
2019-05-03T12:14:12.595Z,96779.98
2019-05-03T12:15:16.811Z,96775.91
2019-05-03T12:16:32.698Z,96777.27
2019-05-03T12:17:29.758Z,96773.60
2019-05-03T12:18:47.822Z,96765.26
2019-05-03T12:19:39.724Z,96769.54
2019-05-03T12:20:46.526Z,96764.45
2019-05-03T12:21:49.872Z,96768.82
2019-05-03T12:22:54.543Z,96761.66
2019-05-03T12:23:59.586Z,96757.97
2019-05-03T12:25:09.757Z,96753.36
2019-05-03T12:26:12.927Z,96751.50
2019-05-03T12:27:15.073Z,96758.59
2019-05-03T12:28:18.776Z,96750.28
2019-05-03T12:29:24.735Z,96745.87
2019-05-03T12:30:28.447Z,96746.05
2019-05-03T12:31:39.966Z,96747.43
2019-05-03T12:32:37.614Z,96744.80
2019-05-03T12:33:41.415Z,96736.36
2019-05-03T12:34:45.048Z,96743.89
2019-05-03T12:35:48.695Z,96746.20
2019-05-03T12:36:52.373Z,96746.50
2019-05-03T12:37:56.075Z,96744.34
2019-05-03T12:38:59.876Z,96756.63
2019-05-03T12:40:05.510Z,96744.50
2019-05-03T12:41:09.412Z,96738.23
2019-05-03T12:42:14.838Z,96743.30
2019-05-03T12:43:18.518Z,96744.33
2019-05-03T12:44:22.220Z,96747.04
2019-05-03T12:45:25.847Z,96743.94
2019-05-03T12:46:29.480Z,96741.59
2019-05-03T12:47:34.669Z,96741.02
2019-05-03T12:48:38.547Z,96738.91
2019-05-03T12:49:42.270Z,96733.22
2019-05-03T12:50:47.011Z,96740.70
2019-05-03T12:51:50.961Z,96737.66
2019-05-03T12:52:55.491Z,96736.80
2019-05-03T12:53:59.429Z,96732.51